createdAt,value
2018-04-12T00:04:18.255Z,10.3
2018-04-12T00:14:32.392Z,10.1
2018-04-12T00:24:47.577Z,9.9
2018-04-12T00:35:01.659Z,9.8
2018-04-12T00:45:15.990Z,9.7
2018-04-12T00:56:01.977Z,9.4
2018-04-12T01:06:29.439Z,9.4
2018-04-12T01:16:43.308Z,9.3
2018-04-12T01:26:55.437Z,9.1
2018-04-12T01:37:09.708Z,9.0
2018-04-12T01:47:23.734Z,8.9
2018-04-12T01:57:38.308Z,8.8
2018-04-12T02:07:52.604Z,8.7
2018-04-12T02:18:05.036Z,8.6
2018-04-12T02:28:16.935Z,8.4
2018-04-12T02:38:28.443Z,8.3
2018-04-12T02:48:42.841Z,8.2
2018-04-12T02:59:28.504Z,8.1
2018-04-12T03:09:40.990Z,8.1
2018-04-12T03:20:45.898Z,8.0
2018-04-12T03:31:01.115Z,8.1
2018-04-12T03:41:16.361Z,8.2
2018-04-12T03:51:30.573Z,8.3
2018-04-12T04:01:48.478Z,8.4
2018-04-12T04:12:00.195Z,8.5
2018-04-12T04:22:47.424Z,8.8
2018-04-12T04:33:00.988Z,8.8
2018-04-12T04:43:15.306Z,8.9
2018-04-12T04:53:29.905Z,9.0
2018-04-12T05:04:15.121Z,9.2
2018-04-12T05:14:29.144Z,9.2
2018-04-12T05:25:03.605Z,9.2
2018-04-12T05:35:18.117Z,9.3
2018-04-12T05:45:32.477Z,9.5
2018-04-12T05:56:17.756Z,9.7
2018-04-12T06:06:31.070Z,9.6
2018-04-12T06:17:00.859Z,9.7
2018-04-12T06:27:14.535Z,9.8
2018-04-12T06:37:28.815Z,9.9
2018-04-12T06:47:43.303Z,10.1
2018-04-12T06:57:57.430Z,10.2
2018-04-12T07:08:09.663Z,10.4
2018-04-12T07:18:26.343Z,10.6
2018-04-12T07:28:40.008Z,10.8
2018-04-12T07:38:54.013Z,11.0
2018-04-12T07:49:39.863Z,11.3
2018-04-12T08:00:25.402Z,11.4
2018-04-12T08:24:55.985Z,11.6
2018-04-12T08:35:49.709Z,11.8
2018-04-12T08:46:02.230Z,11.8
2018-04-12T08:56:17.047Z,12.1
2018-04-12T09:06:31.661Z,12.8
2018-04-12T09:16:45.814Z,13.9
2018-04-12T09:26:57.662Z,14.9
2018-04-12T09:37:33.803Z,15.6
2018-04-12T09:47:48.756Z,15.9
2018-04-12T09:58:02.766Z,15.8
2018-04-12T10:08:48.514Z,15.7
2018-04-12T10:40:07.673Z,16.7
2018-04-12T10:50:32.360Z,17.5
2018-04-12T11:02:07.926Z,18.4
2018-04-12T11:12:22.296Z,18.4
2018-04-12T11:23:13.249Z,18.3
2018-04-12T11:33:25.266Z,18.3
2018-04-12T11:43:40.376Z,18.4
2018-04-12T11:54:12.096Z,18.6
2018-04-12T12:04:27.024Z,19.0
2018-04-12T12:14:40.908Z,19.7
2018-04-12T12:24:52.620Z,20.6
2018-04-12T12:35:04.455Z,21.7
2018-04-12T12:45:19.323Z,22.7
2018-04-12T12:56:34.163Z,24.3
2018-04-12T13:07:56.966Z,24.3
2018-04-12T13:18:27.860Z,24.9
2018-04-12T13:28:41.504Z,25.3
2018-04-12T13:38:56.764Z,25.7
2018-04-12T13:49:11.436Z,26.1
2018-04-12T13:59:25.446Z,26.4
2018-04-12T14:09:39.395Z,26.6
2018-04-12T14:19:53.754Z,26.8
2018-04-12T14:30:05.788Z,27.0
2018-04-12T14:40:18.277Z,27.2
2018-04-12T14:50:33.231Z,27.4
2018-04-12T15:00:47.585Z,27.6
2018-04-12T15:11:01.673Z,27.6
2018-04-12T15:21:47.237Z,27.4
2018-04-12T15:32:01.708Z,27.4
2018-04-12T15:42:12.883Z,27.3
2018-04-12T15:52:47.259Z,27.1
2018-04-12T16:03:02.900Z,26.8
2018-04-12T16:13:16.996Z,26.2
2018-04-12T16:24:02.676Z,25.0
2018-04-12T16:34:16.679Z,25.0
2018-04-12T16:44:31.134Z,24.3
2018-04-12T16:54:45.105Z,23.7
2018-04-12T17:05:04.532Z,23.2
2018-04-12T17:16:01.793Z,22.0
2018-04-12T17:37:45.722Z,20.9
2018-04-12T17:48:24.021Z,20.8
2018-04-12T17:58:48.908Z,20.3
2018-04-12T18:09:15.043Z,19.7
2018-04-12T18:40:05.745Z,18.8
2018-04-12T18:50:52.810Z,17.5
2018-04-12T19:27:16.995Z,16.2
2018-04-12T19:37:39.216Z,16.2
2018-04-12T19:48:27.224Z,15.6
2018-04-12T20:00:18.312Z,15.2
2018-04-12T20:43:09.622Z,14.3
2018-04-12T20:54:31.223Z,14.1
2018-04-12T21:04:43.360Z,14.1
2018-04-12T21:16:20.676Z,13.7
2018-04-12T21:26:35.169Z,13.6
2018-04-12T21:37:45.788Z,13.3
2018-04-12T21:48:00.558Z,13.3
2018-04-12T21:58:15.062Z,13.1
2018-04-12T22:10:15.315Z,12.9
2018-04-12T22:20:29.046Z,12.9
2018-04-12T22:30:41.236Z,12.8
2018-04-12T22:40:55.422Z,12.7
2018-04-12T22:51:55.168Z,12.5
2018-04-12T23:02:09.487Z,12.5
2018-04-12T23:12:23.781Z,12.4
2018-04-12T23:22:37.873Z,12.3
2018-04-12T23:33:23.610Z,12.0
2018-04-12T23:43:35.761Z,12.1
2018-04-12T23:53:50.185Z,12.0
